CXR weather

Cam Ranh Airport
Nha Trang, Khanh Hoa Province, Vietnam

Public forecast

Using degrees Celsius for public forecast. Weather courtesy of forecast.io.

METAR (pilot weather report)

Retrieved 2019/03/19 08:00 UTC (4 minutes ago):

VVCR 190800Z 10010KT 9999 FEW015 30/24 Q1011 NOSIG

TAF (pilot weather forecast)

Retrieved 2019/03/19 06:00 UTC (2 hours ago):

TAF VVCR 190500Z 1906/2006 09010KT 9999 SCT017 BECMG 1916/1917 35006KT BECMG 2001/2002 08010KT